Time;durP1;ratioP1;P1;durP2;ratioP2;P2;SDS_P1;SDS_P2;PMS_P1;PMS_P2;Temp;Humidity;BMP_temperature;BMP_pressure;BME280_temperature;BME280_humidity;BME280_pressure;Samples;Min_cycle;Max_cycle;Signal;HPM_P1;HPM_P2
2021/09/02 00:02:00;;;;;;;1.50;1.15;;;;;;;15.28;71.99;98946.19;1754974;79;21839;-51
2021/09/02 00:04:30;;;;;;;1.60;0.90;;;;;;;15.27;71.92;98949.39;1776603;78;22109;-51
2021/09/02 00:06:58;;;;;;;1.20;0.88;;;;;;;15.24;71.87;98948.76;1758794;79;20953;-51
2021/09/02 00:09:24;;;;;;;1.72;0.93;;;;;;;15.18;71.96;98947.91;1763246;79;20918;-51
2021/09/02 00:11:51;;;;;;;2.65;0.90;;;;;;;15.15;72.03;98950.35;1755396;79;22051;-52
2021/09/02 00:14:17;;;;;;;0.88;0.80;;;;;;;15.11;72.08;98957.89;1755103;79;21509;-51
2021/09/02 00:16:43;;;;;;;0.88;0.80;;;;;;;15.09;72.15;98951.72;1779206;78;20914;-51
2021/09/02 00:19:10;;;;;;;5.58;0.80;;;;;;;15.06;72.24;98954.66;1747814;80;20918;-51
2021/09/02 00:21:37;;;;;;;1.77;0.88;;;;;;;15.03;72.33;98954.92;1748197;80;20870;-51
2021/09/02 00:24:05;;;;;;;2.10;0.80;;;;;;;15.02;72.43;98953.19;1760068;79;20905;-51
2021/09/02 00:26:31;;;;;;;2.95;0.85;;;;;;;15.01;72.55;98960.08;1754723;79;21587;-51
2021/09/02 00:28:57;;;;;;;3.12;1.15;;;;;;;14.99;72.58;98957.48;1757469;79;21363;-51
2021/09/02 00:31:23;;;;;;;2.27;0.90;;;;;;;14.96;72.67;98955.53;1754777;79;21003;-51
2021/09/02 00:33:50;;;;;;;3.80;0.80;;;;;;;14.93;72.71;98961.17;1760567;79;20865;-51
2021/09/02 00:36:16;;;;;;;1.12;0.80;;;;;;;14.90;72.81;98964.12;1756160;79;20932;-51
2021/09/02 00:38:42;;;;;;;1.62;1.10;;;;;;;14.87;72.94;98963.02;1750819;79;21780;-51
2021/09/02 00:41:09;;;;;;;1.55;0.70;;;;;;;14.83;73.02;98961.03;1753788;79;21581;-51
2021/09/02 00:43:39;;;;;;;3.30;0.90;;;;;;;14.80;73.18;98963.97;1756956;79;21765;-51
2021/09/02 00:46:06;;;;;;;3.35;1.10;;;;;;;14.76;73.31;98960.66;1755360;79;20870;-51
2021/09/02 00:48:34;;;;;;;1.15;0.90;;;;;;;14.76;73.52;98965.20;1752465;79;21823;-52
2021/09/02 00:51:01;;;;;;;2.83;0.90;;;;;;;14.78;73.57;98967.31;1751133;79;21541;-51
2021/09/02 00:53:30;;;;;;;2.40;1.02;;;;;;;14.78;73.62;98963.25;1748724;79;21040;-51
2021/09/02 00:55:56;;;;;;;2.50;1.00;;;;;;;14.76;73.67;98971.98;1744602;80;20934;-51
2021/09/02 00:58:23;;;;;;;1.47;0.90;;;;;;;14.73;73.75;98966.30;1743607;80;20871;-51
2021/09/02 01:00:49;;;;;;;2.27;0.90;;;;;;;14.69;73.88;98965.31;1739680;80;21053;-51
2021/09/02 01:03:20;;;;;;;1.98;1.00;;;;;;;14.66;74.02;98965.05;1739214;80;21092;-51
2021/09/02 01:05:49;;;;;;;1.30;0.70;;;;;;;14.64;74.16;98964.78;1746420;80;21128;-51
2021/09/02 01:08:15;;;;;;;2.98;0.90;;;;;;;14.63;74.28;98963.92;1747339;80;21151;-51
2021/09/02 01:10:42;;;;;;;1.45;0.90;;;;;;;14.63;74.41;98969.86;1747739;80;21029;-52
2021/09/02 01:13:09;;;;;;;1.20;0.80;;;;;;;14.62;74.48;98964.93;1740786;80;21068;-50
2021/09/02 01:15:37;;;;;;;2.60;1.00;;;;;;;14.59;74.56;98965.16;1740496;80;21061;-52
2021/09/02 01:18:03;;;;;;;1.07;0.82;;;;;;;14.55;74.64;98971.77;1742730;80;21488;-51
2021/09/02 01:20:31;;;;;;;3.83;0.80;;;;;;;14.52;74.78;98972.03;1741449;80;22384;-51
2021/09/02 01:23:03;;;;;;;1.52;0.70;;;;;;;14.49;74.89;98972.73;1737767;80;21056;-51
2021/09/02 01:25:32;;;;;;;1.25;0.80;;;;;;;14.48;75.04;98973.23;1745925;80;20910;-52
2021/09/02 01:28:03;;;;;;;1.60;0.80;;;;;;;14.45;75.10;98964.01;1747441;80;21099;-51
2021/09/02 01:30:30;;;;;;;1.30;0.95;;;;;;;14.44;75.31;98975.81;1745136;80;21657;-51
2021/09/02 01:32:56;;;;;;;0.90;0.80;;;;;;;14.44;75.39;98968.18;1742537;80;21468;-51
2021/09/02 01:35:24;;;;;;;1.00;0.80;;;;;;;14.38;75.53;98969.45;1745303;80;21044;-51
2021/09/02 01:37:53;;;;;;;4.55;1.02;;;;;;;14.34;75.65;98971.55;1747236;80;21455;-51
2021/09/02 01:40:41;;;;;;;3.08;0.90;;;;;;;14.30;75.79;98964.63;1746875;80;21123;-51
2021/09/02 01:43:08;;;;;;;2.47;0.80;;;;;;;14.26;75.86;98959.58;1744505;80;21397;-53
2021/09/02 01:45:37;;;;;;;2.80;0.93;;;;;;;14.22;76.11;98964.83;1748916;80;22063;-52
2021/09/02 01:48:05;;;;;;;1.10;0.95;;;;;;;14.21;76.30;98962.61;1728119;81;20993;-52
2021/09/02 01:50:34;;;;;;;4.97;0.70;;;;;;;14.20;76.47;98962.27;1724022;81;21085;-52
2021/09/02 01:53:04;;;;;;;3.67;0.80;;;;;;;14.21;76.62;98958.55;1733227;81;21486;-52
2021/09/02 01:55:30;;;;;;;1.62;0.82;;;;;;;14.21;76.71;98960.39;1745327;80;21045;-52
2021/09/02 01:57:57;;;;;;;1.10;0.90;;;;;;;14.19;76.83;98965.09;1740412;80;21081;-53
2021/09/02 02:00:23;;;;;;;1.10;0.90;;;;;;;14.17;76.96;98957.08;1749286;79;21292;-52
2021/09/02 02:02:50;;;;;;;1.40;0.90;;;;;;;14.17;77.04;98958.91;1744997;80;21133;-53
2021/09/02 02:05:16;;;;;;;1.60;0.98;;;;;;;14.16;77.11;98959.89;1749986;79;21727;-52
2021/09/02 02:07:43;;;;;;;2.40;1.02;;;;;;;14.14;77.16;98955.94;1754860;80;21464;-52
2021/09/02 02:10:13;;;;;;;0.80;0.72;;;;;;;14.10;77.27;98960.36;1753003;79;20935;-52
2021/09/02 02:12:41;;;;;;;1.10;0.88;;;;;;;14.10;77.27;98960.36;1750006;79;21550;-52
2021/09/02 02:15:08;;;;;;;0.93;0.82;;;;;;;14.10;77.52;98967.13;1750590;80;21436;-52
2021/09/02 02:17:36;;;;;;;2.52;0.70;;;;;;;14.10;77.67;98964.42;1756174;79;22193;-53
2021/09/02 02:20:06;;;;;;;0.98;0.68;;;;;;;14.10;77.85;98967.99;1748947;79;22495;-52
2021/09/02 02:22:32;;;;;;;2.30;1.07;;;;;;;14.12;77.84;98966.53;1753040;79;20933;-52
2021/09/02 02:24:58;;;;;;;1.55;0.90;;;;;;;14.14;77.86;98964.06;1751146;80;21021;-52
2021/09/02 02:27:26;;;;;;;1.87;0.85;;;;;;;14.17;77.92;98973.80;1749914;80;21117;-53
2021/09/02 02:29:53;;;;;;;0.90;0.72;;;;;;;14.13;77.94;98967.73;1747454;80;21183;-52
2021/09/02 02:32:19;;;;;;;1.05;0.90;;;;;;;14.11;78.09;98968.86;1750570;79;21682;-52
2021/09/02 02:34:46;;;;;;;2.10;0.98;;;;;;;14.12;78.26;98967.36;1749236;79;21033;-53
2021/09/02 02:37:12;;;;;;;6.45;0.90;;;;;;;14.14;78.35;98970.83;1747624;80;21022;-52
2021/09/02 02:39:38;;;;;;;1.10;0.72;;;;;;;14.17;78.41;98971.96;1752638;79;21054;-52
2021/09/02 02:42:06;;;;;;;2.75;0.90;;;;;;;14.19;78.47;98978.13;1750691;79;21628;-52
2021/09/02 02:44:34;;;;;;;1.72;0.70;;;;;;;14.22;78.54;98976.52;1750947;79;21157;-52
2021/09/02 02:47:00;;;;;;;2.17;0.88;;;;;;;14.27;78.51;98971.65;1746718;80;21669;-52
2021/09/02 02:49:27;;;;;;;3.27;0.90;;;;;;;14.30;78.50;98974.59;1744033;79;21569;-53
2021/09/02 02:51:54;;;;;;;1.70;0.90;;;;;;;14.30;78.51;98969.17;1748603;80;21090;-52
2021/09/02 02:54:20;;;;;;;1.22;0.90;;;;;;;14.32;78.49;98970.80;1737117;80;21972;-52
2021/09/02 02:56:47;;;;;;;1.27;0.85;;;;;;;14.33;78.50;98963.05;1744689;80;22375;-52
2021/09/02 02:59:13;;;;;;;2.55;0.80;;;;;;;14.35;78.49;98967.87;1742750;80;21565;-52
2021/09/02 03:01:40;;;;;;;1.42;0.85;;;;;;;14.36;78.48;98963.32;1752642;80;21100;-52
2021/09/02 03:04:06;;;;;;;3.10;0.98;;;;;;;14.36;78.49;98966.89;1749680;80;21067;-52
2021/09/02 03:06:33;;;;;;;1.20;1.00;;;;;;;14.37;78.48;98967.76;1752321;80;21143;-52
2021/09/02 03:09:02;;;;;;;2.50;1.02;;;;;;;14.37;78.51;98967.23;1732908;81;21055;-52
2021/09/02 03:11:27;;;;;;;1.70;1.10;;;;;;;14.38;78.55;98962.69;1722680;81;20971;-52
2021/09/02 03:13:55;;;;;;;2.20;1.15;;;;;;;14.38;78.57;98970.35;1743393;80;20922;-52
2021/09/02 03:16:21;;;;;;;1.37;0.90;;;;;;;14.42;78.60;98972.84;1737980;80;20930;-53
2021/09/02 03:18:48;;;;;;;2.80;1.85;;;;;;;14.40;78.58;98968.89;1741156;80;21279;-52
2021/09/02 03:21:14;;;;;;;1.00;0.80;;;;;;;14.38;78.62;98971.70;1741495;80;22071;-52
2021/09/02 03:23:42;;;;;;;1.27;1.17;;;;;;;14.37;78.64;98970.47;1743759;80;21421;-52
2021/09/02 03:26:08;;;;;;;1.37;0.90;;;;;;;14.36;78.66;98970.95;1740097;80;21038;-52
2021/09/02 03:28:35;;;;;;;3.17;0.85;;;;;;;14.37;78.74;98965.05;1741002;80;20923;-52
2021/09/02 03:31:01;;;;;;;1.02;0.80;;;;;;;14.41;78.78;98975.17;1736968;80;21072;-52
2021/09/02 03:33:27;;;;;;;1.35;1.00;;;;;;;14.46;78.73;98970.29;1736107;80;20950;-52
2021/09/02 03:35:53;;;;;;;2.05;0.90;;;;;;;14.49;78.57;98969.55;1739303;80;21238;-52
2021/09/02 03:38:21;;;;;;;1.65;1.12;;;;;;;14.51;78.52;98973.49;1742006;80;20941;-52
2021/09/02 03:40:48;;;;;;;1.67;1.22;;;;;;;14.50;78.44;98975.34;1743354;80;21307;-52
2021/09/02 03:43:14;;;;;;;3.15;1.00;;;;;;;14.51;78.38;98984.33;1739874;80;21535;-52
2021/09/02 03:45:41;;;;;;;3.92;1.00;;;;;;;14.48;78.38;98975.94;1741091;80;21141;-52
2021/09/02 03:48:07;;;;;;;1.30;0.82;;;;;;;14.48;78.27;98978.64;1739681;80;21089;-54
2021/09/02 03:50:34;;;;;;;2.55;0.80;;;;;;;14.49;78.23;98987.63;1719868;81;21059;-53
2021/09/02 03:54:05;;;;;;;1.57;0.97;;;;;;;14.57;78.21;98986.55;1790251;78;24593;-53
2021/09/02 03:56:32;;;;;;;1.25;0.90;;;;;;;14.55;78.12;98990.73;1771969;79;21020;-52
2021/09/02 03:58:58;;;;;;;1.80;0.90;;;;;;;14.57;77.96;98991.48;1769031;78;21144;-53
2021/09/02 04:01:25;;;;;;;1.02;0.88;;;;;;;14.58;77.86;98986.44;1769250;79;21570;-53
2021/09/02 04:03:53;;;;;;;2.35;0.80;;;;;;;14.60;77.75;98991.75;1773832;79;20942;-53
2021/09/02 04:06:19;;;;;;;1.87;0.90;;;;;;;14.60;77.75;98993.97;1769118;78;21060;-53
2021/09/02 04:08:46;;;;;;;1.87;0.90;;;;;;;14.62;77.59;98996.56;1765600;79;21061;-53
2021/09/02 04:11:12;;;;;;;2.90;1.27;;;;;;;14.64;77.40;99006.77;1738658;80;21274;-53
2021/09/02 04:13:40;;;;;;;7.05;1.05;;;;;;;14.65;77.28;99008.50;1726521;80;21040;-53
2021/09/02 04:16:07;;;;;;;1.57;1.00;;;;;;;14.67;77.21;99001.13;1702441;82;21077;-52
2021/09/02 04:18:34;;;;;;;3.02;1.10;;;;;;;14.72;76.94;99008.39;1701938;82;21268;-53
2021/09/02 04:21:04;;;;;;;1.25;0.90;;;;;;;14.73;76.77;99012.34;1736446;81;21504;-52
2021/09/02 04:23:28;;;;;;;1.67;1.22;;;;;;;14.72;76.54;99010.62;1735030;81;21114;-53
2021/09/02 04:25:55;;;;;;;1.90;0.90;;;;;;;14.71;76.43;99016.18;1710531;81;21284;-53
2021/09/02 04:28:21;;;;;;;1.67;0.70;;;;;;;14.69;76.22;99012.72;1707963;82;21093;-53
2021/09/02 04:30:48;;;;;;;1.82;0.98;;;;;;;14.67;76.12;99015.53;1708858;81;21069;-53
2021/09/02 04:33:14;;;;;;;2.55;0.70;;;;;;;14.69;76.07;99016.78;1696409;82;21117;-53
2021/09/02 04:35:41;;;;;;;0.93;0.82;;;;;;;14.70;75.97;99019.86;1694712;83;21544;-53
2021/09/02 04:38:08;;;;;;;1.82;1.15;;;;;;;14.71;75.62;99017.53;1697249;83;21569;-53
2021/09/02 04:40:34;;;;;;;2.25;1.07;;;;;;;14.68;75.51;99019.11;1690840;83;21118;-52
2021/09/02 04:43:00;;;;;;;3.70;1.25;;;;;;;14.67;75.49;99015.53;1697728;83;21090;-53
2021/09/02 04:45:27;;;;;;;2.83;1.20;;;;;;;14.67;75.38;99013.31;1707690;81;21181;-52
2021/09/02 04:47:53;;;;;;;1.10;0.90;;;;;;;14.63;75.23;99012.67;1705685;82;21074;-53
2021/09/02 04:50:19;;;;;;;3.90;0.80;;;;;;;14.61;75.17;99016.02;1704971;82;21679;-53
2021/09/02 04:52:47;;;;;;;2.55;0.82;;;;;;;14.58;75.22;99020.30;1696587;82;21096;-53
2021/09/02 04:55:13;;;;;;;1.32;0.80;;;;;;;14.58;75.25;99017.59;1676120;83;21156;-53
2021/09/02 04:57:41;;;;;;;1.07;0.98;;;;;;;14.60;75.23;99023.77;1677865;83;21165;-53
2021/09/02 05:00:09;;;;;;;1.65;1.10;;;;;;;14.60;75.09;99022.41;1687028;82;22122;-53
2021/09/02 05:02:35;;;;;;;1.98;0.93;;;;;;;14.59;75.10;99029.29;1732237;80;20965;-52
2021/09/02 05:05:01;;;;;;;4.40;1.98;;;;;;;14.59;74.89;99030.64;1732711;80;21638;-52
2021/09/02 05:07:28;;;;;;;1.47;0.90;;;;;;;14.56;74.87;99035.80;1729433;80;21088;-53
2021/09/02 05:09:54;;;;;;;3.05;0.80;;;;;;;14.51;74.72;99030.36;1730832;80;21073;-53
2021/09/02 05:12:22;;;;;;;4.05;0.90;;;;;;;14.46;74.71;99031.21;1731823;80;21070;-53
2021/09/02 05:14:49;;;;;;;2.35;1.00;;;;;;;14.42;74.75;99031.92;1733621;80;20954;-53
2021/09/02 05:17:15;;;;;;;3.15;1.00;;;;;;;14.41;74.81;99030.67;1731764;80;21069;-52
2021/09/02 05:19:42;;;;;;;1.95;1.00;;;;;;;14.42;74.82;99034.63;1731507;80;21124;-53
2021/09/02 05:22:09;;;;;;;3.55;0.82;;;;;;;14.44;74.74;99033.16;1731605;80;21037;-53
2021/09/02 05:24:36;;;;;;;1.72;1.12;;;;;;;14.45;74.70;99030.34;1732677;80;21043;-53
2021/09/02 05:27:03;;;;;;;1.45;1.02;;;;;;;14.46;74.59;99022.56;1735280;80;21120;-53
2021/09/02 05:29:29;;;;;;;3.80;1.00;;;;;;;14.47;74.61;99020.23;1733179;80;21026;-52
2021/09/02 05:31:55;;;;;;;1.80;1.00;;;;;;;14.49;74.57;99018.77;1733990;80;22171;-52
2021/09/02 05:34:22;;;;;;;1.30;1.02;;;;;;;14.52;74.47;99024.84;1730661;80;22073;-53
2021/09/02 05:36:48;;;;;;;1.70;0.80;;;;;;;14.55;74.24;99025.94;1732377;80;21172;-52
2021/09/02 05:39:15;;;;;;;2.42;1.00;;;;;;;14.57;74.14;99033.95;1730197;80;21117;-53
2021/09/02 05:41:41;;;;;;;3.20;0.90;;;;;;;14.61;74.01;99030.05;1729675;80;21112;-53
2021/09/02 05:44:11;;;;;;;2.12;1.10;;;;;;;14.65;73.81;99029.67;1732626;80;21086;-52
2021/09/02 05:46:36;;;;;;;1.67;0.95;;;;;;;14.69;73.56;99031.67;1730671;80;21370;-53
2021/09/02 05:49:03;;;;;;;2.12;1.05;;;;;;;14.71;73.37;99019.75;1733906;80;21060;-52
2021/09/02 05:51:29;;;;;;;1.57;0.80;;;;;;;14.77;73.03;99022.47;1732959;80;21081;-53
2021/09/02 05:53:56;;;;;;;2.37;1.20;;;;;;;14.77;72.72;99029.24;1737682;80;21065;-53
2021/09/02 05:56:22;;;;;;;2.35;0.72;;;;;;;14.80;72.60;99030.34;1695188;82;21578;-52
2021/09/02 05:58:48;;;;;;;2.02;1.20;;;;;;;14.86;72.31;99026.31;1743837;80;21511;-52
2021/09/02 06:01:17;;;;;;;6.37;0.90;;;;;;;14.91;71.93;99026.81;1739459;80;21125;-53
2021/09/02 06:03:44;;;;;;;6.45;1.00;;;;;;;14.94;71.41;99033.36;1729252;80;21093;-53
2021/09/02 06:06:11;;;;;;;3.05;0.98;;;;;;;14.93;70.85;99031.14;1744832;80;21057;-53
2021/09/02 06:08:37;;;;;;;1.57;0.80;;;;;;;14.94;70.24;99032.87;1745530;80;21602;-52
2021/09/02 06:11:04;;;;;;;1.77;0.90;;;;;;;14.93;69.78;99043.83;1743992;80;21930;-53
2021/09/02 06:13:34;;;;;;;4.22;0.82;;;;;;;14.90;69.50;99042.20;1743352;80;22255;-52
2021/09/02 06:16:01;;;;;;;3.62;0.70;;;;;;;14.87;68.74;99051.08;1738290;80;21084;-53
2021/09/02 06:18:28;;;;;;;1.17;0.85;;;;;;;14.82;68.41;99046.00;1742841;80;21113;-52
2021/09/02 06:20:54;;;;;;;3.02;0.93;;;;;;;14.78;68.22;99036.88;1744387;80;21086;-53
2021/09/02 06:23:21;;;;;;;4.35;0.70;;;;;;;14.74;67.93;99044.36;1741786;80;21118;-53
2021/09/02 06:25:49;;;;;;;1.65;0.72;;;;;;;14.70;67.37;99056.43;1746545;80;21078;-52
2021/09/02 06:28:15;;;;;;;3.85;0.88;;;;;;;14.66;67.29;99046.80;1737347;80;21093;-54
2021/09/02 06:30:42;;;;;;;3.85;0.80;;;;;;;14.64;67.30;99059.09;1741108;80;22223;-52
2021/09/02 06:33:09;;;;;;;2.37;1.02;;;;;;;14.64;67.25;99060.94;1741607;80;22192;-53
2021/09/02 06:35:35;;;;;;;2.87;0.70;;;;;;;14.61;67.03;99060.70;1742429;80;21044;-52
2021/09/02 06:38:05;;;;;;;3.15;0.70;;;;;;;14.59;66.79;99059.08;1738055;80;21104;-52
2021/09/02 06:40:32;;;;;;;1.00;0.60;;;;;;;14.58;66.58;99062.28;1660458;84;21246;-52
2021/09/02 06:43:00;;;;;;;1.42;0.60;;;;;;;14.59;66.23;99065.36;1694047;82;21544;-52
2021/09/02 06:45:27;;;;;;;1.07;0.70;;;;;;;14.63;65.72;99064.66;1697220;82;21410;-53
2021/09/02 06:47:54;;;;;;;1.20;0.80;;;;;;;14.65;65.49;99059.96;1695638;82;21126;-53
2021/09/02 06:50:20;;;;;;;1.82;0.60;;;;;;;14.66;65.12;99061.20;1697425;82;21136;-53
2021/09/02 06:52:48;;;;;;;2.42;0.75;;;;;;;14.71;64.56;99063.58;1695121;82;21074;-53
2021/09/02 06:55:14;;;;;;;3.12;0.70;;;;;;;14.79;64.49;99066.57;1746667;81;21051;-53
2021/09/02 06:57:41;;;;;;;3.42;0.60;;;;;;;14.84;64.04;99055.37;1751029;81;21326;-53
2021/09/02 07:00:08;;;;;;;2.75;0.70;;;;;;;14.88;62.64;99072.64;1744765;81;21500;-53
2021/09/02 07:02:35;;;;;;;1.27;0.60;;;;;;;14.88;61.76;99075.36;1749555;81;21101;-53
2021/09/02 07:05:03;;;;;;;3.58;1.45;;;;;;;14.87;60.87;99070.05;1746005;81;21687;-55
2021/09/02 07:07:29;;;;;;;0.90;0.50;;;;;;;14.84;59.41;99095.52;1702016;83;20880;-53
2021/09/02 07:09:56;;;;;;;2.12;0.50;;;;;;;14.80;56.50;99091.30;1695752;83;20959;-53
2021/09/02 07:12:23;;;;;;;2.17;0.50;;;;;;;14.80;52.25;99076.40;1700471;82;21014;-53
2021/09/02 07:14:49;;;;;;;0.80;0.50;;;;;;;14.81;51.66;99084.91;1698573;82;22180;-53
2021/09/02 07:17:16;;;;;;;1.47;0.60;;;;;;;14.85;51.96;99085.55;1747257;81;21668;-53
2021/09/02 07:19:42;;;;;;;0.88;0.40;;;;;;;14.92;52.02;99086.31;1746037;80;21400;-51
2021/09/02 07:22:08;;;;;;;1.85;0.50;;;;;;;14.98;52.29;99089.03;1747225;81;21041;-53
2021/09/02 07:24:35;;;;;;;1.10;0.50;;;;;;;15.07;51.69;99093.26;1744983;81;21066;-52
2021/09/02 07:27:04;;;;;;;2.98;0.40;;;;;;;15.12;50.55;99084.30;1746030;81;21149;-52
2021/09/02 07:29:31;;;;;;;3.52;0.53;;;;;;;15.15;51.24;99080.47;1750972;81;20903;-52
2021/09/02 07:31:57;;;;;;;1.95;0.50;;;;;;;15.22;51.51;99093.08;1747748;81;21003;-52
2021/09/02 07:34:24;;;;;;;1.02;0.50;;;;;;;15.27;51.09;99090.38;1744601;81;21066;-52
2021/09/02 07:36:50;;;;;;;1.07;0.50;;;;;;;15.31;50.79;99095.91;1747181;80;21062;-52
2021/09/02 07:39:17;;;;;;;2.22;0.45;;;;;;;15.32;50.94;99088.64;1750289;81;21118;-52
2021/09/02 07:41:43;;;;;;;2.00;0.40;;;;;;;15.34;50.53;99083.48;1746981;81;21037;-52
2021/09/02 07:44:09;;;;;;;6.28;0.47;;;;;;;15.39;49.80;99077.72;1747625;81;21932;-53
2021/09/02 07:46:36;;;;;;;0.72;0.40;;;;;;;15.40;50.19;99072.63;1745623;81;21756;-52
2021/09/02 07:49:02;;;;;;;1.32;0.40;;;;;;;15.46;50.49;99082.53;1744383;81;21073;-52
2021/09/02 07:51:29;;;;;;;2.83;0.40;;;;;;;15.48;50.05;99068.34;1749238;81;21517;-52
2021/09/02 07:53:56;;;;;;;0.72;0.40;;;;;;;15.51;49.41;99078.09;1744085;80;21227;-52
2021/09/02 07:56:23;;;;;;;3.50;0.60;;;;;;;15.49;49.53;99085.47;1739414;80;22091;-53
2021/09/02 07:58:50;;;;;;;2.37;0.45;;;;;;;15.41;49.39;99091.50;1740420;80;21042;-52
2021/09/02 08:01:22;;;;;;;0.50;0.40;;;;;;;15.39;49.90;99093.98;1743317;80;21130;-53
2021/09/02 08:03:44;;;;;;;0.78;0.55;;;;;;;15.39;50.33;99092.63;1735011;80;21619;-52
2021/09/02 08:06:10;;;;;;;3.80;0.62;;;;;;;15.36;50.39;99082.88;1745477;80;21053;-52
2021/09/02 08:08:37;;;;;;;1.32;0.50;;;;;;;15.36;50.68;99094.22;1739611;80;21027;-52
2021/09/02 08:11:03;;;;;;;2.60;0.40;;;;;;;15.36;50.93;99088.80;1743124;80;21060;-52
2021/09/02 08:13:29;;;;;;;0.70;0.40;;;;;;;15.37;50.70;99084.61;1743340;80;21085;-53
2021/09/02 08:15:57;;;;;;;1.95;0.50;;;;;;;15.42;51.11;99093.73;1746370;80;20922;-53
2021/09/02 08:18:25;;;;;;;0.70;0.30;;;;;;;15.49;50.99;99082.77;1739082;80;21004;-53
2021/09/02 08:20:52;;;;;;;3.00;0.40;;;;;;;15.56;49.61;99089.48;1697848;82;21638;-53
2021/09/02 08:23:18;;;;;;;2.72;0.40;;;;;;;15.59;47.90;99086.52;1743615;80;21049;-52
2021/09/02 08:25:44;;;;;;;2.25;0.30;;;;;;;15.60;48.07;99080.11;1743550;80;21192;-52
2021/09/02 08:28:11;;;;;;;1.57;0.40;;;;;;;15.65;48.27;99073.81;1744736;80;21086;-52
2021/09/02 08:30:37;;;;;;;2.40;0.30;;;;;;;15.73;47.29;99101.23;1738595;80;21025;-52
2021/09/02 08:33:04;;;;;;;1.20;0.30;;;;;;;15.79;47.49;99080.38;1743467;80;21363;-53
2021/09/02 08:35:31;;;;;;;1.07;0.40;;;;;;;15.82;47.32;99089.61;1694217;82;21753;-52
2021/09/02 08:38:02;;;;;;;0.50;0.30;;;;;;;15.81;47.18;99084.33;1744783;80;21300;-53
2021/09/02 08:40:31;;;;;;;1.27;0.40;;;;;;;15.80;47.65;99090.25;1740227;80;21095;-52
2021/09/02 08:42:57;;;;;;;1.00;0.42;;;;;;;15.73;47.50;99093.09;1744684;80;21319;-52
2021/09/02 08:45:25;;;;;;;3.95;0.62;;;;;;;15.71;47.27;99087.41;1745591;80;21041;-52
2021/09/02 08:47:52;;;;;;;1.70;0.30;;;;;;;15.68;47.27;99080.36;1748691;80;20965;-52
2021/09/02 08:50:23;;;;;;;0.60;0.40;;;;;;;15.70;47.94;99077.53;1697441;82;21126;-52
2021/09/02 08:52:51;;;;;;;3.15;0.37;;;;;;;15.76;47.96;99069.75;1748838;80;21135;-52
2021/09/02 08:55:18;;;;;;;2.33;0.42;;;;;;;15.78;46.38;99094.06;1750209;80;21047;-52
2021/09/02 08:57:50;;;;;;;1.12;0.35;;;;;;;15.74;46.91;99073.57;1676524;83;21123;-52
2021/09/02 09:00:17;;;;;;;0.50;0.30;;;;;;;15.75;47.44;99077.52;1748272;81;21133;-52
2021/09/02 09:02:47;;;;;;;1.25;0.40;;;;;;;15.84;47.10;99077.28;1746643;81;21503;-52
2021/09/02 09:05:16;;;;;;;3.02;0.60;;;;;;;15.96;46.26;99070.01;1749709;81;22650;-52
2021/09/02 09:07:47;;;;;;;2.25;0.37;;;;;;;16.04;45.81;99069.76;1749924;80;20950;-52
2021/09/02 09:10:23;;;;;;;2.02;0.40;;;;;;;16.13;45.77;99067.66;1751052;81;20949;-52
2021/09/02 09:12:52;;;;;;;2.15;0.40;;;;;;;16.17;45.45;99069.60;1748716;80;21593;-52
2021/09/02 09:15:30;;;;;;;0.72;0.30;;;;;;;16.17;45.21;99075.90;1746807;81;21070;-52
2021/09/02 09:18:22;;;;;;;4.08;0.40;;;;;;;16.13;45.20;99085.30;1748003;80;21429;-52
2021/09/02 09:21:16;;;;;;;1.50;0.35;;;;;;;16.07;45.28;99074.95;1749198;81;20915;-52
2021/09/02 09:24:07;;;;;;;3.93;0.33;;;;;;;16.06;45.82;99088.64;1749337;80;20884;-52
2021/09/02 09:26:34;;;;;;;1.02;0.60;;;;;;;16.06;45.82;99073.71;1750169;81;20970;-53
2021/09/02 09:29:05;;;;;;;1.15;0.30;;;;;;;16.07;45.52;99064.09;1748245;81;21398;-52
2021/09/02 09:31:35;;;;;;;1.25;0.50;;;;;;;16.06;45.60;99071.86;1743432;80;21475;-53
2021/09/02 09:34:06;;;;;;;3.02;0.40;;;;;;;16.03;45.10;99082.95;1746115;81;21511;-53
2021/09/02 09:36:35;;;;;;;3.85;0.30;;;;;;;15.99;44.82;99096.39;1748928;81;20939;-52
2021/09/02 09:39:10;;;;;;;2.30;0.40;;;;;;;15.92;45.13;99095.66;1751394;81;20946;-52
2021/09/02 09:41:41;;;;;;;1.10;0.40;;;;;;;15.82;45.64;99103.17;1753505;81;21455;-52
2021/09/02 09:44:16;;;;;;;1.87;0.50;;;;;;;15.81;46.25;99104.19;1750595;81;21777;-52
2021/09/02 09:46:42;;;;;;;0.60;0.40;;;;;;;15.85;46.51;99102.08;1747378;81;21370;-51
2021/09/02 09:49:08;;;;;;;1.85;0.40;;;;;;;15.93;45.73;99115.89;1751238;81;20976;-53
2021/09/02 09:51:35;;;;;;;0.70;0.30;;;;;;;16.02;45.02;99088.50;1744748;81;21082;-52
2021/09/02 09:54:02;;;;;;;0.70;0.40;;;;;;;16.07;44.31;99094.45;1747052;81;21062;-52
2021/09/02 09:56:28;;;;;;;1.12;0.45;;;;;;;16.09;43.69;99088.38;1747743;80;21062;-52
2021/09/02 09:58:56;;;;;;;0.65;0.40;;;;;;;16.09;43.57;99108.73;1746056;81;21034;-53
2021/09/02 10:01:23;;;;;;;2.15;0.30;;;;;;;16.11;43.15;99094.05;1743343;80;21101;-52
2021/09/02 10:03:51;;;;;;;0.98;0.30;;;;;;;16.09;43.02;99106.02;1752305;81;21006;-52
2021/09/02 10:06:19;;;;;;;1.82;0.40;;;;;;;16.06;43.01;99114.43;1747954;81;21038;-52
2021/09/02 10:08:47;;;;;;;1.62;0.40;;;;;;;16.02;43.30;99104.30;1747778;80;21492;-53
2021/09/02 10:11:15;;;;;;;1.22;0.30;;;;;;;15.99;43.71;99107.77;1745099;80;21102;-53
2021/09/02 10:13:42;;;;;;;2.15;0.40;;;;;;;15.96;43.47;99112.08;1749812;81;21000;-53
2021/09/02 10:16:09;;;;;;;0.80;0.40;;;;;;;15.96;43.47;99118.38;1680795;83;20975;-53
2021/09/02 10:18:44;;;;;;;3.02;0.72;;;;;;;15.99;43.40;99105.06;1746601;81;21095;-52
2021/09/02 10:21:10;;;;;;;2.35;0.40;;;;;;;16.04;43.85;99119.98;1747514;81;21142;-52
2021/09/02 10:23:37;;;;;;;0.60;0.37;;;;;;;16.12;42.38;99108.50;1746113;80;21063;-52
2021/09/02 10:26:03;;;;;;;1.50;0.50;;;;;;;16.21;42.41;99109.97;1747777;81;21306;-53
2021/09/02 10:28:35;;;;;;;2.08;0.33;;;;;;;16.29;42.05;99121.56;1744936;80;21089;-51
2021/09/02 10:31:09;;;;;;;2.08;0.30;;;;;;;16.37;41.48;99117.73;1745522;80;22215;-52
2021/09/02 10:33:44;;;;;;;5.45;0.50;;;;;;;16.44;41.64;99112.16;1699442;83;21284;-53
2021/09/02 10:36:19;;;;;;;1.10;0.40;;;;;;;16.52;41.85;99114.23;1748476;81;21065;-52
2021/09/02 10:38:54;;;;;;;5.05;0.35;;;;;;;16.57;41.89;99115.60;1748245;81;21058;-52
2021/09/02 10:41:41;;;;;;;1.00;0.50;;;;;;;16.61;42.51;99121.66;1748128;81;21432;-52
2021/09/02 10:44:15;;;;;;;1.80;0.33;;;;;;;16.62;41.89;99113.39;1747487;80;21421;-53
2021/09/02 10:46:52;;;;;;;0.53;0.40;;;;;;;16.59;40.26;99118.17;1750926;80;21200;-52
2021/09/02 10:49:28;;;;;;;1.45;0.35;;;;;;;16.52;40.64;99102.88;1746518;80;21022;-52
2021/09/02 10:51:57;;;;;;;0.90;0.40;;;;;;;16.42;40.81;99114.12;1749847;81;20937;-52
2021/09/02 10:54:36;;;;;;;0.70;0.40;;;;;;;16.28;41.87;99117.12;1740372;81;21015;-52
2021/09/02 10:57:07;;;;;;;5.58;0.40;;;;;;;16.16;42.56;99127.11;1705414;82;21491;-52
2021/09/02 10:59:39;;;;;;;4.10;0.40;;;;;;;16.02;42.64;99139.59;1701065;82;21131;-52
2021/09/02 11:02:09;;;;;;;0.80;0.50;;;;;;;15.89;43.53;99154.65;1701441;82;21504;-52
2021/09/02 11:04:38;;;;;;;1.60;0.57;;;;;;;15.81;43.75;99163.89;1698237;82;21160;-52
2021/09/02 11:07:05;;;;;;;1.20;0.40;;;;;;;15.75;43.61;99157.56;1699664;82;22454;-52
2021/09/02 11:09:35;;;;;;;1.70;0.45;;;;;;;15.77;44.43;99162.87;1703017;82;21001;-52
2021/09/02 11:12:08;;;;;;;2.08;0.40;;;;;;;15.75;44.44;99165.70;1707427;82;20959;-53
2021/09/02 11:14:44;;;;;;;1.60;0.50;;;;;;;15.76;44.91;99185.08;1698669;82;21057;-52
2021/09/02 11:17:11;;;;;;;4.33;0.50;;;;;;;15.71;45.76;99198.64;1702899;82;21308;-52
2021/09/02 11:19:41;;;;;;;2.72;0.50;;;;;;;15.66;46.97;99173.21;1702823;82;21173;-51
2021/09/02 11:22:17;;;;;;;1.92;0.40;;;;;;;15.60;47.34;99176.41;1702152;82;21280;-52
2021/09/02 11:24:46;;;;;;;1.47;0.30;;;;;;;15.52;46.71;99170.69;1700381;82;21149;-52
2021/09/02 11:27:28;;;;;;;1.32;0.40;;;;;;;15.47;46.78;99178.33;1706512;82;21649;-52
2021/09/02 11:30:25;;;;;;;0.70;0.37;;;;;;;15.42;44.43;99169.66;1679820;82;21479;-52
2021/09/02 11:32:59;;;;;;;0.75;0.40;;;;;;;15.31;44.34;99177.78;1701816;82;21057;-51
2021/09/02 11:35:26;;;;;;;0.40;0.30;;;;;;;15.27;44.60;99176.27;1701323;82;21084;-52
2021/09/02 11:37:53;;;;;;;0.70;0.42;;;;;;;15.28;45.11;99171.22;1703591;82;22363;-52
2021/09/02 11:40:29;;;;;;;0.68;0.40;;;;;;;15.36;45.09;99167.44;1700321;82;21049;-52